createdAt,value
2022-08-02T00:00:43.757Z,21.01
2022-08-02T00:04:11.069Z,21.01
2022-08-02T00:07:41.344Z,20.99
2022-08-02T00:11:09.313Z,20.97
2022-08-02T00:14:36.848Z,20.95
2022-08-02T00:18:04.842Z,20.94
2022-08-02T00:21:32.328Z,20.92
2022-08-02T00:24:59.942Z,20.91
2022-08-02T00:28:28.422Z,20.88
2022-08-02T00:31:56.045Z,20.86
2022-08-02T00:35:23.462Z,20.84
2022-08-02T00:38:51.253Z,20.82
2022-08-02T00:42:19.949Z,20.80
2022-08-02T00:46:02.068Z,20.78
2022-08-02T00:49:32.758Z,20.76
2022-08-02T00:53:00.373Z,20.73
2022-08-02T00:56:27.314Z,20.69
2022-08-02T00:59:54.935Z,20.67
2022-08-02T01:03:22.834Z,20.63
2022-08-02T01:06:49.981Z,20.58
2022-08-02T01:10:21.304Z,20.55
2022-08-02T01:13:48.357Z,20.52
2022-08-02T01:17:36.180Z,20.50
2022-08-02T01:21:25.739Z,20.47
2022-08-02T01:25:11.218Z,20.46
2022-08-02T01:28:43.184Z,20.47
2022-08-02T01:32:18.243Z,20.49
2022-08-02T01:35:54.636Z,20.53
2022-08-02T01:39:31.762Z,20.57
2022-08-02T01:43:00.490Z,20.61
2022-08-02T01:46:28.632Z,20.63
2022-08-02T01:50:00.323Z,20.61
2022-08-02T01:53:30.965Z,20.58
2022-08-02T01:57:00.354Z,20.56
2022-08-02T02:00:30.806Z,20.52
2022-08-02T02:03:58.690Z,20.48
2022-08-02T02:07:26.726Z,20.43
2022-08-02T02:10:55.032Z,20.37
2022-08-02T02:14:23.632Z,20.31
2022-08-02T02:18:12.630Z,20.20
2022-08-02T02:21:41.625Z,20.22
2022-08-02T02:25:11.264Z,20.18
2022-08-02T02:28:41.652Z,20.16
2022-08-02T02:32:10.232Z,20.11
2022-08-02T02:35:39.298Z,20.06
2022-08-02T02:39:13.785Z,20.00
2022-08-02T02:42:49.282Z,19.96
2022-08-02T02:46:21.918Z,19.94
2022-08-02T02:49:50.841Z,19.92
2022-08-02T02:53:21.247Z,19.90
2022-08-02T02:56:50.150Z,19.88
2022-08-02T03:00:18.529Z,19.86
2022-08-02T03:03:47.568Z,19.84
2022-08-02T03:07:16.029Z,19.83
2022-08-02T03:10:44.143Z,19.82
2022-08-02T03:14:13.457Z,19.80
2022-08-02T03:17:45.399Z,19.75
2022-08-02T03:21:14.687Z,19.73
2022-08-02T03:24:41.940Z,19.70
2022-08-02T03:28:09.872Z,19.66
2022-08-02T03:31:37.638Z,19.64
2022-08-02T03:35:06.996Z,19.61
2022-08-02T03:38:36.838Z,19.56
2022-08-02T03:42:05.309Z,19.50
2022-08-02T03:45:33.694Z,19.47
2022-08-02T03:49:02.271Z,19.45
2022-08-02T03:52:30.365Z,19.42
2022-08-02T03:55:57.966Z,19.42
2022-08-02T03:59:26.172Z,19.43
2022-08-02T04:03:00.234Z,19.46
2022-08-02T04:06:28.561Z,19.48
2022-08-02T04:09:56.236Z,19.52
2022-08-02T04:13:28.570Z,19.56
2022-08-02T04:17:03.625Z,19.60
2022-08-02T04:20:33.430Z,19.66
2022-08-02T04:24:02.385Z,19.65
2022-08-02T04:27:50.607Z,19.68
2022-08-02T04:31:21.535Z,19.71
2022-08-02T04:35:17.801Z,19.69
2022-08-02T04:38:37.059Z,19.68
2022-08-02T04:42:03.932Z,19.69
2022-08-02T04:45:33.474Z,19.75
2022-08-02T04:49:00.448Z,19.84
2022-08-02T04:52:28.329Z,19.92
2022-08-02T04:55:56.406Z,20.01
2022-08-02T04:59:23.627Z,20.09
2022-08-02T05:02:53.128Z,20.14
2022-08-02T05:06:21.186Z,20.19
2022-08-02T05:09:49.235Z,20.21
2022-08-02T05:13:16.033Z,20.20
2022-08-02T05:16:43.510Z,20.24
2022-08-02T05:20:13.863Z,20.26
2022-08-02T05:23:41.445Z,20.29
2022-08-02T05:27:21.166Z,20.35
2022-08-02T05:30:49.725Z,20.43
2022-08-02T05:34:17.369Z,20.48
2022-08-02T05:37:44.322Z,20.54
2022-08-02T05:41:16.190Z,20.63
2022-08-02T05:44:43.673Z,20.67
2022-08-02T05:48:11.322Z,20.68
2022-08-02T05:51:41.663Z,20.71
2022-08-02T05:55:13.837Z,20.78
2022-08-02T05:58:51.451Z,20.86
2022-08-02T06:02:30.919Z,20.94
2022-08-02T06:06:06.258Z,20.97
2022-08-02T06:09:35.241Z,20.99
2022-08-02T06:13:13.520Z,21.05
2022-08-02T06:16:45.620Z,21.06
2022-08-02T06:20:15.466Z,21.05
2022-08-02T06:23:59.026Z,21.03
2022-08-02T06:27:29.937Z,20.98
2022-08-02T06:31:00.812Z,20.99
2022-08-02T06:34:28.245Z,21.04
2022-08-02T06:38:01.028Z,21.06
2022-08-02T06:41:30.036Z,21.09
2022-08-02T06:44:58.423Z,21.04
2022-08-02T06:48:25.595Z,21.03
2022-08-02T06:51:53.033Z,21.02
2022-08-02T06:55:20.292Z,21.01
2022-08-02T06:58:47.541Z,21.07
2022-08-02T07:02:17.474Z,21.15
2022-08-02T07:05:48.943Z,21.21
2022-08-02T07:09:21.115Z,21.29
2022-08-02T07:12:47.573Z,21.35
2022-08-02T07:16:17.006Z,21.38
2022-08-02T07:19:44.328Z,21.39
2022-08-02T07:23:11.377Z,21.41
2022-08-02T07:27:01.615Z,21.46
2022-08-02T07:30:27.096Z,21.47
2022-08-02T07:33:54.561Z,21.52
2022-08-02T07:37:35.797Z,21.59
2022-08-02T07:41:09.009Z,21.65
2022-08-02T07:44:36.510Z,21.67
2022-08-02T07:48:05.543Z,21.71
2022-08-02T07:51:33.878Z,21.81
2022-08-02T07:55:01.625Z,21.93
2022-08-02T07:58:29.230Z,22.01
2022-08-02T08:01:57.726Z,22.04
2022-08-02T08:05:25.306Z,22.09
2022-08-02T08:08:52.609Z,22.17
2022-08-02T08:12:19.959Z,22.26
2022-08-02T08:15:51.869Z,22.37
2022-08-02T08:19:19.805Z,22.47
2022-08-02T08:23:08.000Z,22.54
2022-08-02T08:26:35.341Z,22.63
2022-08-02T08:30:02.791Z,22.71
2022-08-02T08:33:30.459Z,22.82
2022-08-02T08:36:58.289Z,22.91
2022-08-02T08:40:26.376Z,22.99
2022-08-02T08:43:53.964Z,23.09
2022-08-02T08:47:22.585Z,23.12
2022-08-02T08:50:55.437Z,23.23
2022-08-02T08:54:25.563Z,23.30
2022-08-02T08:57:56.614Z,23.34
2022-08-02T09:01:24.504Z,23.43
2022-08-02T09:04:55.455Z,23.51
2022-08-02T09:08:24.554Z,23.58
2022-08-02T09:11:57.941Z,23.66
2022-08-02T09:15:35.686Z,23.77
2022-08-02T09:19:21.454Z,23.90
2022-08-02T09:23:11.078Z,23.97
2022-08-02T09:26:46.239Z,24.01
2022-08-02T09:30:21.061Z,24.08
2022-08-02T09:33:58.016Z,24.19
2022-08-02T09:37:30.259Z,24.24
2022-08-02T09:41:04.018Z,24.29
2022-08-02T09:44:33.675Z,24.29
2022-08-02T09:48:08.799Z,24.27
2022-08-02T09:51:51.092Z,24.34
2022-08-02T09:55:38.465Z,24.41
2022-08-02T09:59:31.226Z,24.48
2022-08-02T10:03:21.537Z,24.49
2022-08-02T10:06:51.387Z,24.59
2022-08-02T10:10:18.809Z,24.73
2022-08-02T10:13:47.319Z,24.81
2022-08-02T10:17:15.732Z,24.86
2022-08-02T10:20:47.190Z,24.93
2022-08-02T10:24:16.657Z,25.04
2022-08-02T10:28:04.114Z,25.06
2022-08-02T10:31:40.460Z,25.16
2022-08-02T10:35:18.623Z,25.27
2022-08-02T10:38:49.687Z,25.39
2022-08-02T10:42:37.396Z,25.56
2022-08-02T10:46:40.865Z,25.69
2022-08-02T10:50:09.535Z,25.84
2022-08-02T10:53:38.072Z,26.00
2022-08-02T10:57:06.006Z,26.13
2022-08-02T11:00:32.912Z,26.18
2022-08-02T11:04:05.086Z,26.26
2022-08-02T11:07:39.887Z,26.37
2022-08-02T11:11:20.143Z,26.45
2022-08-02T11:15:09.117Z,26.56
2022-08-02T11:19:07.399Z,26.69
2022-08-02T11:22:34.385Z,26.82
2022-08-02T11:26:11.008Z,26.86
2022-08-02T11:29:41.972Z,26.90
2022-08-02T11:33:11.636Z,26.92
2022-08-02T11:36:47.698Z,26.89
2022-08-02T11:40:19.533Z,26.96
2022-08-02T11:43:47.903Z,27.03
2022-08-02T11:47:15.658Z,27.15
2022-08-02T11:50:43.312Z,27.29
2022-08-02T11:54:11.143Z,27.37
2022-08-02T11:58:03.159Z,27.51
2022-08-02T12:01:28.122Z,27.63
2022-08-02T12:05:00.986Z,27.72
2022-08-02T12:08:30.613Z,27.90
2022-08-02T12:11:59.292Z,28.04
2022-08-02T12:15:40.666Z,28.22
2022-08-02T12:19:20.545Z,28.35
2022-08-02T12:22:47.908Z,28.55
2022-08-02T12:26:16.137Z,28.79
2022-08-02T12:29:58.789Z,29.00
2022-08-02T12:33:28.158Z,29.18
2022-08-02T12:37:08.478Z,29.35
2022-08-02T12:41:30.250Z,29.55
2022-08-02T12:45:01.275Z,29.70
2022-08-02T12:48:56.571Z,29.78
2022-08-02T12:52:25.891Z,29.85
2022-08-02T12:56:03.783Z,29.89
2022-08-02T12:59:42.555Z,30.05
2022-08-02T13:04:11.135Z,30.20
2022-08-02T13:06:58.434Z,30.42
2022-08-02T13:10:29.400Z,30.43
2022-08-02T13:14:02.722Z,30.41
2022-08-02T13:17:30.148Z,30.65
2022-08-02T13:20:59.186Z,30.79
2022-08-02T13:24:38.066Z,30.86
2022-08-02T13:28:09.478Z,31.07
2022-08-02T13:31:39.939Z,31.22
2022-08-02T13:35:17.871Z,31.33
2022-08-02T13:38:46.402Z,31.45
2022-08-02T13:42:31.291Z,31.63
2022-08-02T13:46:01.171Z,31.87
2022-08-02T13:49:42.611Z,31.95
2022-08-02T13:53:16.483Z,31.98
2022-08-02T13:56:44.095Z,32.05
2022-08-02T14:00:20.220Z,32.26
2022-08-02T14:04:19.509Z,32.42
2022-08-02T14:08:16.946Z,32.52
2022-08-02T14:11:45.508Z,32.70
2022-08-02T14:15:17.607Z,32.93
2022-08-02T14:18:44.308Z,33.21
2022-08-02T14:22:31.354Z,33.44
2022-08-02T14:26:00.726Z,33.66
2022-08-02T14:29:28.477Z,33.77
2022-08-02T14:32:55.483Z,33.85
2022-08-02T14:36:27.735Z,33.98
2022-08-02T14:40:00.577Z,34.08
2022-08-02T14:43:53.887Z,34.09
2022-08-02T14:47:22.474Z,34.21
2022-08-02T14:50:56.727Z,34.36
2022-08-02T14:54:31.757Z,34.58
2022-08-02T14:58:02.738Z,34.74
2022-08-02T15:01:31.833Z,34.86
2022-08-02T15:05:01.182Z,34.90
2022-08-02T15:08:29.040Z,34.89
2022-08-02T15:11:56.730Z,34.83
2022-08-02T15:15:43.554Z,34.68
2022-08-02T15:19:11.480Z,34.53
2022-08-02T15:22:51.742Z,34.32
2022-08-02T15:26:21.329Z,34.02
2022-08-02T15:30:00.886Z,33.76
2022-08-02T15:33:27.752Z,33.48
2022-08-02T15:36:55.072Z,33.15
2022-08-02T15:40:22.951Z,32.83
2022-08-02T15:44:00.314Z,32.64
2022-08-02T15:47:29.172Z,32.37
2022-08-02T15:50:58.560Z,32.14
2022-08-02T15:54:27.233Z,31.84
2022-08-02T15:57:54.364Z,31.52
2022-08-02T16:01:21.590Z,31.31
2022-08-02T16:04:49.261Z,31.05
2022-08-02T16:08:16.398Z,30.69
2022-08-02T16:11:44.172Z,30.29
2022-08-02T16:15:12.916Z,29.96
2022-08-02T16:18:43.099Z,29.70
2022-08-02T16:22:11.108Z,29.43
2022-08-02T16:25:42.082Z,29.20
2022-08-02T16:29:09.017Z,28.95
2022-08-02T16:32:36.177Z,28.75
2022-08-02T16:36:04.147Z,28.56
2022-08-02T16:39:31.276Z,28.40
2022-08-02T16:42:58.924Z,28.25
2022-08-02T16:46:27.546Z,28.11
2022-08-02T16:50:05.987Z,27.96
2022-08-02T16:53:59.458Z,27.83
2022-08-02T16:57:24.772Z,27.71
2022-08-02T17:01:10.485Z,27.56
2022-08-02T17:04:37.636Z,27.43
2022-08-02T17:08:07.529Z,27.31
2022-08-02T17:11:46.777Z,27.20
2022-08-02T17:15:53.014Z,27.09
2022-08-02T17:19:03.037Z,27.01
2022-08-02T17:22:30.992Z,26.92
2022-08-02T17:26:04.596Z,26.82
2022-08-02T17:29:39.090Z,26.68
2022-08-02T17:37:05.624Z,26.44
2022-08-02T17:40:37.543Z,26.30
2022-08-02T17:44:08.878Z,26.15
2022-08-02T17:48:47.861Z,26.01
2022-08-02T17:52:51.432Z,25.79
2022-08-02T17:56:23.997Z,25.64
2022-08-02T18:00:03.887Z,25.53
2022-08-02T18:03:42.905Z,25.38
2022-08-02T18:07:13.604Z,25.27
2022-08-02T18:10:52.919Z,25.13
2022-08-02T18:14:20.957Z,24.98
2022-08-02T18:17:48.039Z,24.84
2022-08-02T18:21:22.519Z,24.69
2022-08-02T18:24:50.314Z,24.55
2022-08-02T18:28:17.390Z,24.36
2022-08-02T18:31:50.851Z,24.26
2022-08-02T18:35:18.801Z,24.11
2022-08-02T18:38:47.391Z,24.00
2022-08-02T18:42:17.663Z,23.87
2022-08-02T18:46:07.462Z,23.74
2022-08-02T18:49:46.637Z,23.60
2022-08-02T18:53:39.497Z,23.47
2022-08-02T18:58:04.349Z,23.33
2022-08-02T19:00:58.237Z,23.17
2022-08-02T19:04:28.751Z,23.04
2022-08-02T19:08:00.429Z,22.93
2022-08-02T19:11:35.127Z,22.81
2022-08-02T19:15:03.564Z,22.66
2022-08-02T19:18:30.915Z,22.53
2022-08-02T19:22:16.364Z,22.40
2022-08-02T19:25:54.527Z,22.23
2022-08-02T19:29:42.624Z,22.07
2022-08-02T19:33:24.942Z,21.90
2022-08-02T19:37:00.054Z,21.75
2022-08-02T19:40:29.014Z,21.66
2022-08-02T19:44:26.509Z,21.57
2022-08-02T19:47:54.328Z,21.46
2022-08-02T19:51:50.022Z,21.35
2022-08-02T19:56:00.943Z,21.23
2022-08-02T19:59:12.682Z,21.11
2022-08-02T20:02:46.650Z,21.01
2022-08-02T20:06:18.384Z,20.93
2022-08-02T20:09:47.171Z,20.83
2022-08-02T20:13:24.495Z,20.75
2022-08-02T20:17:11.687Z,20.67
2022-08-02T20:20:44.571Z,20.57
2022-08-02T20:24:12.917Z,20.47
2022-08-02T20:27:51.207Z,20.39
2022-08-02T20:31:22.178Z,20.32
2022-08-02T20:35:08.188Z,20.26
2022-08-02T20:38:42.306Z,20.18
2022-08-02T20:42:23.313Z,20.12
2022-08-02T20:45:52.525Z,20.05
2022-08-02T20:53:23.740Z,19.90
2022-08-02T20:56:54.143Z,19.83
2022-08-02T21:00:25.006Z,19.75
2022-08-02T21:03:58.549Z,19.73
2022-08-02T21:07:26.561Z,19.71
2022-08-02T21:10:55.670Z,19.67
2022-08-02T21:14:25.362Z,19.62
2022-08-02T21:18:00.448Z,19.54
2022-08-02T21:21:34.165Z,19.47
2022-08-02T21:25:09.025Z,19.41
2022-08-02T21:28:44.987Z,19.38
2022-08-02T21:32:21.379Z,19.37
2022-08-02T21:35:54.413Z,19.30
2022-08-02T21:39:22.630Z,19.27
2022-08-02T21:42:50.088Z,19.18
2022-08-02T21:46:18.243Z,19.10
2022-08-02T21:50:09.448Z,19.06
2022-08-02T21:53:42.281Z,19.00
2022-08-02T21:57:11.234Z,18.94
2022-08-02T22:00:44.476Z,18.89
2022-08-02T22:04:12.044Z,18.86
2022-08-02T22:07:45.869Z,18.82
2022-08-02T22:11:17.238Z,18.79
2022-08-02T22:14:49.667Z,18.76
2022-08-02T22:18:29.141Z,18.71
2022-08-02T22:22:00.808Z,18.66
2022-08-02T22:25:36.267Z,18.60
2022-08-02T22:29:06.559Z,18.53
2022-08-02T22:33:15.065Z,18.47
2022-08-02T22:36:44.884Z,18.41
2022-08-02T22:40:14.901Z,18.36
2022-08-02T22:43:42.744Z,18.30
2022-08-02T22:47:14.807Z,18.22
2022-08-02T22:50:42.656Z,18.14
2022-08-02T22:54:11.812Z,18.08
2022-08-02T22:57:56.296Z,18.03
2022-08-02T22:58:50.531Z,26.57
2022-08-02T22:59:07.886Z,19.98
2022-08-02T23:01:24.992Z,17.97
2022-08-02T23:04:54.647Z,17.91
2022-08-02T23:08:21.954Z,17.87
2022-08-02T23:11:49.189Z,17.83
2022-08-02T23:15:19.825Z,17.77
2022-08-02T23:19:08.419Z,17.72
2022-08-02T23:22:43.260Z,17.65
2022-08-02T23:26:11.341Z,17.60
2022-08-02T23:29:38.855Z,17.56
2022-08-02T23:33:07.520Z,17.51
2022-08-02T23:36:35.706Z,17.48
2022-08-02T23:40:02.978Z,17.43
2022-08-02T23:43:30.016Z,17.35
2022-08-02T23:47:04.247Z,17.28
2022-08-02T23:50:32.046Z,17.24
2022-08-02T23:54:00.398Z,17.21
2022-08-02T23:57:27.613Z,17.18
